createdAt,value
2019-04-13T00:00:37.759Z,6.03
2019-04-13T00:03:06.182Z,6.20
2019-04-13T00:05:38.509Z,6.40
2019-04-13T00:08:08.444Z,7.07
2019-04-13T00:10:41.134Z,6.17
2019-04-13T00:13:09.420Z,7.33
2019-04-13T00:15:37.713Z,7.13
2019-04-13T00:18:06.006Z,7.07
2019-04-13T00:20:34.350Z,6.50
2019-04-13T00:23:02.645Z,6.57
2019-04-13T00:25:30.915Z,6.97
2019-04-13T00:27:59.188Z,7.50
2019-04-13T00:30:27.483Z,7.10
2019-04-13T00:32:56.026Z,7.37
2019-04-13T00:35:24.315Z,7.60
2019-04-13T00:37:52.590Z,7.10
2019-04-13T00:40:20.877Z,7.93
2019-04-13T00:42:49.164Z,7.77
2019-04-13T00:45:18.420Z,7.07
2019-04-13T00:47:46.699Z,7.33
2019-04-13T00:50:15.058Z,7.07
2019-04-13T00:52:43.337Z,8.17
2019-04-13T00:55:11.637Z,7.57
2019-04-13T00:57:39.906Z,7.37
2019-04-13T01:00:09.939Z,8.00
2019-04-13T01:02:38.228Z,8.37
2019-04-13T01:05:07.572Z,8.00
2019-04-13T01:07:35.854Z,8.20
2019-04-13T01:10:04.479Z,7.50
2019-04-13T01:12:32.765Z,8.07
2019-04-13T01:15:01.046Z,8.37
2019-04-13T01:17:29.347Z,8.57
2019-04-13T01:19:57.615Z,8.53
2019-04-13T01:22:25.906Z,8.33
2019-04-13T01:24:54.185Z,9.23
2019-04-13T01:27:22.476Z,9.07
2019-04-13T01:29:50.766Z,9.40
2019-04-13T01:32:19.097Z,9.37
2019-04-13T01:34:47.337Z,9.70
2019-04-13T01:37:15.640Z,10.17
2019-04-13T01:39:43.924Z,9.37
2019-04-13T01:42:12.218Z,9.73
2019-04-13T01:44:40.506Z,9.83
2019-04-13T01:47:08.811Z,10.00
2019-04-13T01:49:37.105Z,9.83
2019-04-13T01:52:05.404Z,10.77
2019-04-13T01:54:33.684Z,10.67
2019-04-13T01:57:01.973Z,11.47
2019-04-13T01:59:30.274Z,11.43
2019-04-13T02:02:18.281Z,10.90
2019-04-13T02:04:50.919Z,11.43
2019-04-13T02:07:32.986Z,10.97
2019-04-13T02:10:08.683Z,11.63
2019-04-13T02:12:36.982Z,11.03
2019-04-13T02:15:08.510Z,10.47
2019-04-13T02:17:36.797Z,11.60
2019-04-13T02:20:06.736Z,11.63
2019-04-13T02:22:35.063Z,11.33
2019-04-13T02:25:03.311Z,10.97
2019-04-13T02:27:31.593Z,11.13
2019-04-13T02:29:59.892Z,11.37
2019-04-13T02:32:28.170Z,11.63
2019-04-13T02:34:56.468Z,11.83
2019-04-13T02:37:35.543Z,11.93
2019-04-13T02:40:04.772Z,11.53
2019-04-13T02:42:33.055Z,12.63
2019-04-13T02:45:01.352Z,12.37
2019-04-13T02:47:29.631Z,11.13
2019-04-13T02:49:57.932Z,12.00
2019-04-13T02:52:26.216Z,11.47
2019-04-13T02:54:54.514Z,12.37
2019-04-13T02:57:22.865Z,11.70
2019-04-13T02:59:51.149Z,12.60
2019-04-13T03:02:19.723Z,12.53
2019-04-13T03:04:48.008Z,13.13
2019-04-13T03:07:16.306Z,13.30
2019-04-13T03:09:44.599Z,12.53
2019-04-13T03:12:12.893Z,13.93
2019-04-13T03:14:41.260Z,12.90
2019-04-13T03:17:23.087Z,13.90
2019-04-13T03:19:55.669Z,12.63
2019-04-13T03:22:23.972Z,13.17
2019-04-13T03:24:52.261Z,12.83
2019-04-13T03:27:20.553Z,13.23
2019-04-13T03:29:48.909Z,13.13
2019-04-13T03:32:17.229Z,13.13
2019-04-13T03:34:45.507Z,13.50
2019-04-13T03:37:13.822Z,12.63
2019-04-13T03:39:42.104Z,13.00
2019-04-13T03:42:10.424Z,13.27
2019-04-13T03:44:38.684Z,13.07
2019-04-13T03:47:06.984Z,13.10
2019-04-13T03:49:35.265Z,13.10
2019-04-13T03:52:03.562Z,13.27
2019-04-13T03:54:31.843Z,12.97
2019-04-13T03:57:00.191Z,12.53
2019-04-13T03:59:28.432Z,12.63
2019-04-13T04:01:56.725Z,12.03
2019-04-13T04:04:25.020Z,12.57
2019-04-13T04:06:53.302Z,12.77
2019-04-13T04:09:21.600Z,13.37
2019-04-13T04:11:49.879Z,12.97
2019-04-13T04:14:18.244Z,13.23
2019-04-13T04:16:46.520Z,13.07
2019-04-13T04:19:14.812Z,13.23
2019-04-13T04:21:43.088Z,13.67
2019-04-13T04:24:11.391Z,13.87
2019-04-13T04:26:39.675Z,13.57
2019-04-13T04:29:07.981Z,13.83
2019-04-13T04:31:36.263Z,13.57
2019-04-13T04:34:04.552Z,14.13
2019-04-13T04:36:32.845Z,13.57
2019-04-13T04:39:01.148Z,14.20
2019-04-13T04:41:29.491Z,14.33
2019-04-13T04:43:57.782Z,13.70
2019-04-13T04:46:26.151Z,13.67
2019-04-13T04:48:54.439Z,13.70
2019-04-13T04:51:22.747Z,14.10
2019-04-13T04:53:51.032Z,14.47
2019-04-13T04:56:19.329Z,14.03
2019-04-13T04:58:47.626Z,13.50
2019-04-13T05:01:15.919Z,14.47
2019-04-13T05:03:44.188Z,14.90
2019-04-13T05:06:12.552Z,14.67
2019-04-13T05:08:41.376Z,16.13
2019-04-13T05:11:09.691Z,15.97
2019-04-13T05:13:37.984Z,15.80
2019-04-13T05:16:06.368Z,14.73
2019-04-13T05:18:34.651Z,15.40
2019-04-13T05:21:03.121Z,15.67
2019-04-13T05:23:31.740Z,15.63
2019-04-13T05:26:00.053Z,15.67
2019-04-13T05:28:28.325Z,15.60
2019-04-13T05:30:56.618Z,14.87
2019-04-13T05:33:24.922Z,15.03
2019-04-13T05:35:53.288Z,15.17
2019-04-13T05:38:21.604Z,15.70
2019-04-13T05:40:49.872Z,15.90
2019-04-13T05:43:18.177Z,15.53
2019-04-13T05:45:46.459Z,14.87
2019-04-13T05:48:14.754Z,15.17
2019-04-13T05:50:43.116Z,15.67
2019-04-13T05:53:11.417Z,16.17
2019-04-13T05:55:39.702Z,15.17
2019-04-13T05:58:08.019Z,14.70
2019-04-13T06:00:36.301Z,15.90
2019-04-13T06:03:06.622Z,15.07
2019-04-13T06:05:34.881Z,15.93
2019-04-13T06:08:03.187Z,15.10
2019-04-13T06:10:31.462Z,14.97
2019-04-13T06:12:59.762Z,13.97
2019-04-13T06:15:28.041Z,15.70
2019-04-13T06:17:56.670Z,15.07
2019-04-13T06:20:24.950Z,14.83
2019-04-13T06:22:53.257Z,16.57
2019-04-13T06:25:28.766Z,15.10
2019-04-13T06:27:51.572Z,15.67
2019-04-13T06:30:27.139Z,15.53
2019-04-13T06:33:06.036Z,15.07
2019-04-13T06:35:34.347Z,14.37
2019-04-13T06:38:02.651Z,15.53
2019-04-13T06:40:30.921Z,16.17
2019-04-13T06:42:59.201Z,15.20
2019-04-13T06:45:30.714Z,14.50
2019-04-13T06:48:00.480Z,14.33
2019-04-13T06:50:28.888Z,15.20
2019-04-13T06:52:57.176Z,14.00
2019-04-13T06:55:25.468Z,14.17
2019-04-13T06:57:53.747Z,14.20
2019-04-13T07:00:22.062Z,14.00
2019-04-13T07:02:50.336Z,14.40
2019-04-13T07:05:18.628Z,14.30
2019-04-13T07:07:57.901Z,14.13
2019-04-13T07:10:44.207Z,14.50
2019-04-13T07:13:11.512Z,13.17
2019-04-13T07:15:46.661Z,11.70
2019-04-13T07:18:11.490Z,12.27
2019-04-13T07:20:39.795Z,12.33
2019-04-13T07:23:08.071Z,11.57
2019-04-13T07:25:36.375Z,10.57
2019-04-13T07:28:04.675Z,10.73
2019-04-13T07:30:32.947Z,11.27
2019-04-13T07:33:01.244Z,10.77
2019-04-13T07:35:29.526Z,10.90
2019-04-13T07:37:57.832Z,11.80
2019-04-13T07:40:26.126Z,10.10
2019-04-13T07:42:54.415Z,10.33
2019-04-13T07:45:26.830Z,9.67
2019-04-13T07:48:05.031Z,9.97
2019-04-13T07:50:51.299Z,9.53
2019-04-13T07:53:21.237Z,10.10
2019-04-13T07:55:52.161Z,9.63
2019-04-13T07:58:19.536Z,9.50
2019-04-13T08:00:47.813Z,7.67
2019-04-13T08:03:16.116Z,8.00
2019-04-13T08:05:44.392Z,7.10
2019-04-13T08:08:12.676Z,7.17
2019-04-13T08:10:41.292Z,7.60
2019-04-13T08:13:09.586Z,6.67
2019-04-13T08:15:37.862Z,6.80
2019-04-13T08:18:08.747Z,7.00
2019-04-13T08:20:36.930Z,7.83
2019-04-13T08:23:06.762Z,7.50
2019-04-13T08:25:37.182Z,7.53
2019-04-13T08:28:05.550Z,6.53
2019-04-13T08:30:35.906Z,7.00
2019-04-13T08:33:03.991Z,7.37
2019-04-13T08:35:32.693Z,6.93
2019-04-13T08:40:30.978Z,6.97
2019-04-13T08:41:03.650Z,6.70
2019-04-13T08:42:59.934Z,6.70
2019-04-13T08:45:28.439Z,7.47
2019-04-13T08:47:56.646Z,6.27
2019-04-13T08:50:24.935Z,7.20
2019-04-13T08:52:53.282Z,6.80
2019-04-13T08:55:21.702Z,6.47
2019-04-13T08:57:49.991Z,6.17
2019-04-13T09:00:18.342Z,6.30
2019-04-13T09:02:46.780Z,6.07
2019-04-13T09:05:15.082Z,5.20
2019-04-13T09:07:43.358Z,5.77
2019-04-13T09:10:15.045Z,5.70
2019-04-13T09:12:43.023Z,6.70
2019-04-13T09:15:12.534Z,6.17
2019-04-13T09:17:56.804Z,5.23
2019-04-13T09:20:24.229Z,5.77
2019-04-13T09:23:06.735Z,6.03
2019-04-13T09:25:35.088Z,5.80
2019-04-13T09:28:04.740Z,6.67
2019-04-13T09:30:34.709Z,6.77
2019-04-13T09:33:04.170Z,6.63
2019-04-13T09:35:32.547Z,5.83
2019-04-13T09:38:00.833Z,5.67
2019-04-13T09:40:30.667Z,6.23
2019-04-13T09:43:00.984Z,6.17
2019-04-13T09:45:29.718Z,5.80
2019-04-13T09:47:58.007Z,5.77
2019-04-13T09:50:26.291Z,5.93
2019-04-13T09:52:54.590Z,6.03
2019-04-13T09:55:22.874Z,6.47
2019-04-13T09:57:51.163Z,6.10
2019-04-13T10:00:19.601Z,6.07
2019-04-13T10:02:47.898Z,6.10
2019-04-13T10:05:16.174Z,5.67
2019-04-13T10:07:45.807Z,5.57
2019-04-13T10:10:14.133Z,5.97
2019-04-13T10:12:59.113Z,5.63
2019-04-13T10:15:29.659Z,5.73
2019-04-13T10:18:14.921Z,6.10
2019-04-13T10:20:43.189Z,6.20
2019-04-13T10:23:11.488Z,5.70
2019-04-13T10:25:39.788Z,6.40
2019-04-13T10:28:08.081Z,6.23
2019-04-13T10:30:36.350Z,5.80
2019-04-13T10:33:04.624Z,6.13
2019-04-13T10:35:32.923Z,6.07
2019-04-13T10:38:01.195Z,5.93
2019-04-13T10:40:29.478Z,6.33
2019-04-13T10:42:57.857Z,5.73
2019-04-13T10:45:45.125Z,6.03
2019-04-13T10:48:17.363Z,5.90
2019-04-13T10:50:49.983Z,5.27
2019-04-13T10:53:18.267Z,5.30
2019-04-13T10:55:46.643Z,5.47
2019-04-13T10:58:14.918Z,5.43
2019-04-13T11:00:43.230Z,5.10
2019-04-13T11:03:11.764Z,5.10
2019-04-13T11:05:40.059Z,5.37
2019-04-13T11:08:08.403Z,5.27
2019-04-13T11:10:36.721Z,6.10
2019-04-13T11:13:05.091Z,5.53
2019-04-13T11:15:33.433Z,5.63
2019-04-13T11:18:03.945Z,5.63
2019-04-13T11:20:31.710Z,5.87
2019-04-13T11:23:00.013Z,6.13
2019-04-13T11:25:28.286Z,6.33
2019-04-13T11:27:56.576Z,6.93
2019-04-13T11:30:24.875Z,6.53
2019-04-13T11:32:53.165Z,7.03
2019-04-13T11:35:21.450Z,6.90
2019-04-13T11:37:49.744Z,7.23
2019-04-13T11:40:18.257Z,7.20
2019-04-13T11:42:57.122Z,7.23
2019-04-13T11:45:42.500Z,6.63
2019-04-13T11:48:24.103Z,6.10
2019-04-13T11:50:54.018Z,6.63
2019-04-13T11:53:22.315Z,6.20
2019-04-13T11:55:50.593Z,6.50
2019-04-13T11:58:18.954Z,5.87
2019-04-13T12:00:55.037Z,6.63
2019-04-13T12:03:30.948Z,6.93
2019-04-13T12:06:05.401Z,7.63
2019-04-13T12:08:32.504Z,7.53
2019-04-13T12:11:07.868Z,8.13
2019-04-13T12:13:43.569Z,7.70
2019-04-13T12:16:20.919Z,7.53
2019-04-13T12:18:56.870Z,7.40
2019-04-13T12:21:42.748Z,8.30
2019-04-13T12:24:21.626Z,7.33
2019-04-13T12:26:49.931Z,6.33
2019-04-13T12:29:18.229Z,6.77
2019-04-13T12:31:46.510Z,6.90
2019-04-13T12:34:14.878Z,6.10
2019-04-13T12:36:43.241Z,7.13
2019-04-13T12:39:11.799Z,7.20
2019-04-13T12:41:56.553Z,7.03
2019-04-13T12:44:36.694Z,6.17
2019-04-13T12:46:54.928Z,6.23
2019-04-13T12:49:23.212Z,5.17
2019-04-13T12:51:51.525Z,6.67
2019-04-13T12:54:19.878Z,5.30
2019-04-13T12:56:48.181Z,5.20
2019-04-13T12:59:16.493Z,5.90
2019-04-13T13:01:58.182Z,5.90
2019-04-13T13:04:28.146Z,6.10
2019-04-13T13:06:56.488Z,5.70
2019-04-13T13:09:24.756Z,5.67
2019-04-13T13:11:53.049Z,5.80
2019-04-13T13:14:21.340Z,5.37
2019-04-13T13:16:49.695Z,5.97
2019-04-13T13:19:17.958Z,6.20
2019-04-13T13:21:46.246Z,6.87
2019-04-13T13:24:14.547Z,7.60
2019-04-13T13:26:49.066Z,8.07
2019-04-13T13:29:12.810Z,7.40
2019-04-13T13:31:41.099Z,8.17
2019-04-13T13:34:09.391Z,48.27
2019-04-13T13:36:37.679Z,8.20
2019-04-13T13:39:06.530Z,7.50
2019-04-13T13:41:34.825Z,9.57
2019-04-13T13:44:03.187Z,8.13
2019-04-13T13:46:31.469Z,8.50
2019-04-13T13:48:59.750Z,9.73
2019-04-13T13:51:28.040Z,9.20
2019-04-13T13:53:56.324Z,9.43
2019-04-13T13:56:24.616Z,8.13
2019-04-13T13:58:59.988Z,7.53
2019-04-13T14:01:29.952Z,7.23
2019-04-13T14:03:58.219Z,7.10
2019-04-13T14:06:26.509Z,6.87
2019-04-13T14:08:55.885Z,6.70
2019-04-13T14:11:24.205Z,6.93
2019-04-13T14:13:52.568Z,7.00
2019-04-13T14:16:23.692Z,7.10
2019-04-13T14:18:52.051Z,7.40
2019-04-13T14:21:20.367Z,7.30
2019-04-13T14:23:48.727Z,8.10
2019-04-13T14:26:17.118Z,7.40
2019-04-13T14:28:45.464Z,7.43
2019-04-13T14:31:13.879Z,7.40
2019-04-13T14:33:42.244Z,7.60
2019-04-13T14:36:10.773Z,7.93
2019-04-13T14:38:40.100Z,7.47
2019-04-13T14:41:09.863Z,7.67
2019-04-13T14:43:39.419Z,7.97
2019-04-13T14:46:09.587Z,7.37
2019-04-13T14:48:39.453Z,6.87
2019-04-13T14:51:07.999Z,7.60
2019-04-13T14:53:36.419Z,6.97
2019-04-13T14:56:05.513Z,6.77
2019-04-13T14:58:34.217Z,6.67
2019-04-13T15:01:02.525Z,7.43
2019-04-13T15:03:30.925Z,6.90
2019-04-13T15:05:59.237Z,7.63
2019-04-13T15:08:27.534Z,6.73
2019-04-13T15:10:57.918Z,6.83
2019-04-13T15:13:25.966Z,7.37
2019-04-13T15:15:54.676Z,6.57
2019-04-13T15:18:25.950Z,5.77
2019-04-13T15:20:57.934Z,5.60
2019-04-13T15:23:25.554Z,5.13
2019-04-13T15:25:55.005Z,5.50
2019-04-13T15:28:23.420Z,5.40
2019-04-13T15:30:54.670Z,5.40
2019-04-13T15:33:22.194Z,5.80
2019-04-13T15:35:56.639Z,4.97
2019-04-13T15:38:23.426Z,4.73
2019-04-13T15:40:54.330Z,5.53
2019-04-13T15:43:27.076Z,5.13
2019-04-13T15:45:51.946Z,5.50
2019-04-13T15:48:20.478Z,5.80
2019-04-13T15:50:49.020Z,5.50
2019-04-13T15:53:18.126Z,5.17
2019-04-13T15:55:46.549Z,4.90
2019-04-13T15:58:14.812Z,6.03
2019-04-13T16:00:43.812Z,5.83
2019-04-13T16:03:12.722Z,6.07
2019-04-13T16:05:41.036Z,6.47
2019-04-13T16:08:10.225Z,6.37
2019-04-13T16:10:40.285Z,6.50
2019-04-13T16:13:10.877Z,5.93
2019-04-13T16:15:40.374Z,6.10
2019-04-13T16:18:08.868Z,6.00
2019-04-13T16:20:38.162Z,6.47
2019-04-13T16:23:06.843Z,7.33
2019-04-13T16:25:35.961Z,7.70
2019-04-13T16:28:15.631Z,7.53
2019-04-13T16:30:49.832Z,7.60
2019-04-13T16:33:19.835Z,7.47
2019-04-13T16:35:49.762Z,7.80
2019-04-13T16:38:18.054Z,8.80
2019-04-13T16:40:46.344Z,8.67
2019-04-13T16:43:15.817Z,8.40
2019-04-13T16:45:48.624Z,9.33
2019-04-13T16:48:25.298Z,8.13
2019-04-13T16:50:58.284Z,8.27
2019-04-13T16:53:45.135Z,8.37
2019-04-13T16:56:18.714Z,7.20
2019-04-13T16:58:52.840Z,8.00
2019-04-13T17:01:25.345Z,8.30
2019-04-13T17:03:56.416Z,7.20
2019-04-13T17:06:26.113Z,7.83
2019-04-13T17:08:55.594Z,7.43
2019-04-13T17:11:23.971Z,7.47
2019-04-13T17:13:53.295Z,8.47
2019-04-13T17:16:21.678Z,8.00
2019-04-13T17:18:54.674Z,8.43
2019-04-13T17:21:24.896Z,8.37
2019-04-13T17:24:00.722Z,7.80
2019-04-13T17:26:45.913Z,8.40
2019-04-13T17:29:16.767Z,9.10
2019-04-13T17:32:02.157Z,9.50
2019-04-13T17:34:38.357Z,8.70
2019-04-13T17:37:09.228Z,9.80
2019-04-13T17:39:38.214Z,8.57
2019-04-13T17:42:29.438Z,8.57
2019-04-13T17:44:58.238Z,9.37
2019-04-13T17:47:28.826Z,9.40
2019-04-13T17:50:10.797Z,8.50
2019-04-13T17:52:59.334Z,8.93
2019-04-13T17:55:46.286Z,9.07
2019-04-13T17:58:32.343Z,9.90
2019-04-13T18:01:17.470Z,9.17
2019-04-13T18:04:05.022Z,9.47
2019-04-13T18:06:51.039Z,10.40
2019-04-13T18:09:23.594Z,9.17
2019-04-13T18:11:56.442Z,10.63
2019-04-13T18:14:36.069Z,9.90
2019-04-13T18:17:09.501Z,9.47
2019-04-13T18:19:38.184Z,10.90
2019-04-13T18:22:07.838Z,11.03
2019-04-13T18:24:36.429Z,10.20
2019-04-13T18:27:04.766Z,9.07
2019-04-13T18:29:33.194Z,9.40
2019-04-13T18:32:01.530Z,10.33
2019-04-13T18:34:32.101Z,9.80
2019-04-13T18:37:01.407Z,9.10
2019-04-13T18:39:29.901Z,9.57
2019-04-13T18:41:59.076Z,9.63
2019-04-13T18:44:27.930Z,9.70
2019-04-13T18:46:57.025Z,11.20
2019-04-13T18:49:25.904Z,11.23
2019-04-13T18:51:54.447Z,9.00
2019-04-13T18:54:22.678Z,8.80
2019-04-13T18:56:50.953Z,7.67
2019-04-13T18:59:19.444Z,7.93
2019-04-13T19:01:47.767Z,7.33
2019-04-13T19:04:16.002Z,7.50
2019-04-13T19:06:44.302Z,7.70
2019-04-13T19:09:13.107Z,8.00
2019-04-13T19:11:41.517Z,8.30
2019-04-13T19:14:09.798Z,8.40
2019-04-13T19:16:38.977Z,9.30
2019-04-13T19:19:07.973Z,9.00
2019-04-13T19:21:36.231Z,8.60
2019-04-13T19:24:04.597Z,9.10
2019-04-13T19:26:32.912Z,9.37
2019-04-13T19:29:01.178Z,9.87
2019-04-13T19:31:29.667Z,9.50
2019-04-13T19:33:57.949Z,10.00
2019-04-13T19:36:26.241Z,10.27
2019-04-13T19:38:54.541Z,9.50
2019-04-13T19:41:22.929Z,10.00
2019-04-13T19:43:51.265Z,10.20
2019-04-13T19:46:19.624Z,10.53
2019-04-13T19:48:48.019Z,10.67
2019-04-13T19:51:18.039Z,11.33
2019-04-13T19:53:56.771Z,11.23
2019-04-13T19:56:25.059Z,11.70
2019-04-13T19:58:53.349Z,11.03
2019-04-13T20:01:23.687Z,11.80
2019-04-13T20:03:52.090Z,12.50
2019-04-13T20:06:20.701Z,12.83
2019-04-13T20:08:49.006Z,13.10
2019-04-13T20:11:17.355Z,13.33
2019-04-13T20:13:53.032Z,12.63
2019-04-13T20:16:16.785Z,13.67
2019-04-13T20:18:45.219Z,13.40
2019-04-13T20:21:13.498Z,13.27
2019-04-13T20:23:42.792Z,13.37
2019-04-13T20:26:12.143Z,14.27
2019-04-13T20:28:41.766Z,13.30
2019-04-13T20:31:10.109Z,15.10
2019-04-13T20:33:39.360Z,14.40
2019-04-13T20:36:13.930Z,14.23
2019-04-13T20:38:38.895Z,14.67
2019-04-13T20:41:21.473Z,14.50
2019-04-13T20:43:58.778Z,14.00
2019-04-13T20:46:21.302Z,14.73
2019-04-13T20:48:49.643Z,14.77
2019-04-13T20:51:19.038Z,14.53
2019-04-13T20:53:47.643Z,15.63
2019-04-13T20:56:16.535Z,15.57
2019-04-13T20:58:44.927Z,15.33
2019-04-13T21:01:13.208Z,16.47
2019-04-13T21:03:42.508Z,16.03
2019-04-13T21:06:10.870Z,15.83
2019-04-13T21:08:39.175Z,17.03
2019-04-13T21:11:07.455Z,16.77
2019-04-13T21:13:36.050Z,16.53
2019-04-13T21:16:04.416Z,16.63
2019-04-13T21:18:32.704Z,18.00
2019-04-13T21:21:02.110Z,18.07
2019-04-13T21:23:30.425Z,18.80
2019-04-13T21:25:59.825Z,18.77
2019-04-13T21:28:28.359Z,19.50
2019-04-13T21:30:57.788Z,19.17
2019-04-13T21:33:26.211Z,19.47
2019-04-13T21:35:55.678Z,21.30
2019-04-13T21:38:24.088Z,22.10
2019-04-13T21:40:53.609Z,22.10
2019-04-13T21:43:22.033Z,25.07
2019-04-13T21:45:51.390Z,25.47
2019-04-13T21:48:19.797Z,24.87
2019-04-13T21:50:56.506Z,25.57
2019-04-13T21:53:26.732Z,25.13
2019-04-13T21:55:55.032Z,25.40
2019-04-13T21:58:23.328Z,25.00
2019-04-13T22:01:06.074Z,25.50
2019-04-13T22:03:34.777Z,24.73
2019-04-13T22:06:03.947Z,26.23
2019-04-13T22:08:33.746Z,26.80
2019-04-13T22:11:03.669Z,24.90
2019-04-13T22:13:32.040Z,25.87
2019-04-13T22:16:01.671Z,26.63
2019-04-13T22:18:30.073Z,26.77
2019-04-13T22:20:58.373Z,24.40
2019-04-13T22:23:26.657Z,26.33
2019-04-13T22:25:55.991Z,24.93
2019-04-13T22:28:26.063Z,24.03
2019-04-13T22:31:05.023Z,22.90
2019-04-13T22:33:33.280Z,23.83
2019-04-13T22:36:07.068Z,23.37
2019-04-13T22:38:35.434Z,23.63
2019-04-13T22:41:04.687Z,22.60
2019-04-13T22:43:33.188Z,23.43
2019-04-13T22:46:02.070Z,22.87
2019-04-13T22:48:35.649Z,23.27
2019-04-13T22:51:05.658Z,21.93
2019-04-13T22:53:44.298Z,23.20
2019-04-13T22:56:14.251Z,23.17
2019-04-13T22:58:42.528Z,23.17
2019-04-13T23:01:27.541Z,22.60
2019-04-13T23:03:55.830Z,21.90
2019-04-13T23:06:24.902Z,22.07
2019-04-13T23:08:53.384Z,22.13
2019-04-13T23:11:21.675Z,21.23
2019-04-13T23:13:49.962Z,21.83
2019-04-13T23:16:19.376Z,21.83
2019-04-13T23:18:47.822Z,22.47
2019-04-13T23:21:16.122Z,21.73
2019-04-13T23:23:44.409Z,22.30
2019-04-13T23:26:12.994Z,22.13
2019-04-13T23:28:42.406Z,21.33
2019-04-13T23:31:10.764Z,21.93
2019-04-13T23:33:39.065Z,22.77
2019-04-13T23:36:07.411Z,23.37
2019-04-13T23:38:35.713Z,20.87
2019-04-13T23:41:04.025Z,22.17
2019-04-13T23:43:32.286Z,21.67
2019-04-13T23:46:00.586Z,22.23
2019-04-13T23:48:28.874Z,21.10
2019-04-13T23:50:57.174Z,21.53
2019-04-13T23:53:25.455Z,21.93
2019-04-13T23:55:59.641Z,22.73
2019-04-13T23:58:41.557Z,22.20
